Stations météo

réclame
Mon MeteoGroup
Roquetas de Mar, Espagne (8492): Température de l'air & dewpoint: 11.01.2020 23:00:00 - 17.01.2020 23:00:00 (CET)Roquetas de Mar, Espagne (8492): Vitesse du vent & gusts: 11.01.2020 23:00:00 - 17.01.2020 23:00:00 (CET)Roquetas de Mar, Espagne (8492): Direction du vent: 11.01.2020 23:00:00 - 17.01.2020 23:00:00 (CET)Roquetas de Mar, Espagne (8492): visibility: 11.01.2020 23:00:00 - 17.01.2020 23:00:00 (CET)Roquetas de Mar, Espagne (8492): Ensoleillement: 11.01.2020 23:00:00 - 17.01.2020 23:00:00 (CET)Roquetas de Mar, Espagne (8492): Quantités de précipitations: 11.01.2020 23:00:00 - 17.01.2020 23:00:00 (CET)
Date & Time tt [°C] td [°C] ff [km/h] ff [knt] fx [km/h] fx [knt] dd vv [km] sd [min] rr [mm]
17.01.2020 23:00:00 8,3 5,9 8 4 10 6 NNE 7 0 0,0
17.01.2020 22:00:00 8,8 6,1 7 4 9 5 NNE 7 0 0,0
17.01.2020 21:00:00 9,7 6,4 6 3 9 5 NNE 15 0 0,0
17.01.2020 20:00:00 11,5 7,4 4 2 8 4 NW 20 0 0,0
17.01.2020 19:00:00 13,9 8,3 6 3 8 4 WNW 20 0 -
17.01.2020 18:00:00 15,9 9,6 4 2 7 4 WSW 20 0 0,0
17.01.2020 17:00:00 16,6 8,6 4 2 10 5 S 20 0 0,0
17.01.2020 16:00:00 17,5 9,2 5 3 11 6 SSE 20 0 0,0
17.01.2020 15:00:00 16,6 9,3 8 4 15 8 S 20 0 0,0
17.01.2020 14:00:00 16,8 9,0 6 4 13 7 SSE 20 0 0,0
17.01.2020 13:00:00 16,6 9,5 5 3 15 8 SE 20 0 -
17.01.2020 12:00:00 15,2 12,2 5 3 - - SE 20 - -
17.01.2020 11:00:00 - - - - - - - - - -
17.01.2020 10:00:00 8,8 7,6 5 3 9 5 NE 20 0 0,0
17.01.2020 09:00:00 6,0 4,6 6 3 11 6 NE 20 0 0,0
17.01.2020 08:00:00 6,4 5,0 8 5 10 5 N 20 0 0,0
17.01.2020 07:00:00 6,3 4,8 9 5 11 6 N 20 0 -
17.01.2020 06:00:00 6,8 5,3 5 3 14 8 NNW 20 0 0,0
17.01.2020 05:00:00 6,8 5,3 10 5 11 6 NW 17 0 0,0
17.01.2020 04:00:00 7,3 5,8 8 4 12 6 N 13 0 0,0
17.01.2020 03:00:00 8,1 6,4 9 5 14 7 WNW 20 0 0,0
17.01.2020 02:00:00 7,8 6,1 6 3 11 6 N 13 0 0,0
17.01.2020 01:00:00 6,9 5,1 7 4 10 5 NNW 3,9 0 -
17.01.2020 00:00:00 8,1 6,1 8 5 9 5 N 4,4 0 0,0
16.01.2020 23:00:00 7,7 5,5 7 4 10 5 N 2,7 0 0,0
16.01.2020 22:00:00 8,6 6,1 6 3 12 6 NNW 5 0 0,0
16.01.2020 21:00:00 11,2 8,2 8 4 13 7 W 13 0 0,0
16.01.2020 20:00:00 12,2 8,7 9 5 17 9 W 20 0 0,0
16.01.2020 19:00:00 14,4 10,0 9 5 16 9 WSW 20 0 -
16.01.2020 18:00:00 16,2 10,5 9 5 15 8 WSW 20 0 0,0
16.01.2020 17:00:00 17,0 10,8 9 5 19 11 WSW 20 0 0,0
16.01.2020 16:00:00 16,6 10,9 8 4 16 8 WSW 20 0 0,0
16.01.2020 15:00:00 16,2 11,4 9 5 15 8 SW 20 0 0,0
16.01.2020 14:00:00 16,0 11,4 8 5 13 7 SW 20 0 0,0
16.01.2020 13:00:00 15,8 12,0 6 3 10 5 SSE 20 0 -
16.01.2020 12:00:00 14,7 12,9 4 2 9 5 SSE 20 0 0,0
16.01.2020 11:00:00 12,0 10,7 6 3 10 5 N 20 0 0,0
16.01.2020 10:00:00 8,0 6,8 6 3 11 6 N 20 0 0,0
16.01.2020 09:00:00 5,0 3,7 7 4 10 6 NNE 17 0 0,0
16.01.2020 08:00:00 5,2 3,9 8 4 10 6 NE 11 0 0,0
16.01.2020 07:00:00 5,1 3,8 7 4 9 5 NNE 20 0 -
16.01.2020 06:00:00 5,5 4,0 7 4 12 6 NNE 18 0 0,0
16.01.2020 05:00:00 5,4 3,7 9 5 11 6 N 13 0 0,0
16.01.2020 04:00:00 5,8 4,1 8 5 10 5 N 17 0 0,0
16.01.2020 03:00:00 5,5 3,8 8 4 9 5 N 17 0 0,0
16.01.2020 02:00:00 6,4 4,6 7 4 9 5 N 13 0 0,0
16.01.2020 01:00:00 6,4 4,6 9 5 10 6 NNW 13 0 -
16.01.2020 00:00:00 7,1 5,1 7 4 11 6 N 7 0 0,0
15.01.2020 23:00:00 7,5 5,1 7 4 11 6 NNW 10 0 0,0
15.01.2020 22:00:00 8,3 5,6 8 4 10 6 N 13 0 0,0
15.01.2020 21:00:00 8,9 5,5 7 4 8 5 N 20 0 0,0
15.01.2020 20:00:00 10,7 5,9 6 4 7 4 NNW 20 0 0,0
15.01.2020 19:00:00 14,1 8,1 4 2 10 6 WNW 20 0 -
15.01.2020 18:00:00 16,6 9,3 7 4 13 7 WSW 20 0 0,0
15.01.2020 17:00:00 16,5 9,7 8 5 14 7 WSW 20 0 0,0
15.01.2020 16:00:00 16,8 10,2 8 4 13 7 SSE 20 0 0,0
15.01.2020 15:00:00 16,9 9,6 5 3 12 6 S 20 0 0,0
15.01.2020 14:00:00 16,4 8,6 6 4 16 9 SE 20 0 0,0
15.01.2020 13:00:00 16,3 6,7 10 5 17 9 ESE 20 0 -
15.01.2020 12:00:00 15,0 7,6 9 5 16 9 E 20 0 0,0
15.01.2020 11:00:00 11,7 9,6 8 4 13 7 NE 20 0 0,0
15.01.2020 10:00:00 8,6 6,9 10 5 19 10 NE 20 0 0,0
15.01.2020 09:00:00 6,4 4,6 11 6 12 7 NE 20 0 0,0
15.01.2020 08:00:00 6,6 4,8 8 4 11 6 NNE 20 0 0,0
15.01.2020 07:00:00 6,4 4,6 8 5 12 6 NE 20 0 -
15.01.2020 06:00:00 6,4 4,4 7 4 10 6 NE 20 0 0,0
15.01.2020 05:00:00 5,8 3,6 8 5 10 5 NNE 20 0 0,0
15.01.2020 04:00:00 6,8 4,5 5 3 13 7 NE 20 0 0,0
15.01.2020 03:00:00 7,1 4,6 2 1 9 5 NNW 20 0 0,0
15.01.2020 02:00:00 7,6 4,9 7 4 10 6 NW 20 0 0,0
15.01.2020 01:00:00 8,7 5,6 7 4 9 5 NW 20 0 -
15.01.2020 00:00:00 10,1 6,6 7 4 16 9 N 20 0 0,0
14.01.2020 23:00:00 13,8 9,7 10 6 30 16 WNW 20 0 0,0
14.01.2020 22:00:00 14,4 10,0 16 9 33 18 WSW 20 0 0,0
14.01.2020 21:00:00 14,4 9,4 16 9 35 19 WSW 20 0 0,0
14.01.2020 20:00:00 14,7 9,3 17 9 34 19 WSW 20 0 0,0
14.01.2020 19:00:00 14,5 8,9 24 13 39 21 W 20 0 -
14.01.2020 18:00:00 - - - - - - - - - -
14.01.2020 17:00:00 - - - - - - - - - -
14.01.2020 16:00:00 - - - - - - - - - -
14.01.2020 15:00:00 - - - - - - - - - -
14.01.2020 14:00:00 - - - - - - - - - -
14.01.2020 13:00:00 - - - - - - - - - -
14.01.2020 12:00:00 - - - - - - - - - -
14.01.2020 11:00:00 11,0 9,4 4 2 7 4 NNE 20 0 0,0
14.01.2020 10:00:00 8,3 6,9 6 3 11 6 N 20 0 0,0
14.01.2020 09:00:00 5,5 4,0 8 5 10 5 NNE 20 0 0,0
14.01.2020 08:00:00 5,2 3,7 8 4 12 7 NNE 20 0 0,0
14.01.2020 07:00:00 5,4 3,9 7 4 11 6 NE 20 0 -
14.01.2020 06:00:00 5,5 4,0 8 4 10 5 NNE 20 0 0,0
14.01.2020 05:00:00 5,6 3,9 8 4 11 6 NNE 20 0 0,0
14.01.2020 04:00:00 5,7 3,9 9 5 11 6 NNW 18 0 0,0
14.01.2020 03:00:00 5,7 3,7 8 4 10 6 N 17 0 0,0
14.01.2020 02:00:00 6,0 3,8 8 4 10 6 NNW 15 0 0,0
14.01.2020 01:00:00 7,0 4,5 9 5 14 7 N 12 0 -
14.01.2020 00:00:00 8,7 5,8 10 6 15 8 NW 20 0 0,0
13.01.2020 23:00:00 10,0 6,2 8 5 26 14 NW 20 0 0,0
13.01.2020 22:00:00 12,2 7,9 14 8 26 14 W 20 0 0,0
13.01.2020 21:00:00 12,3 8,0 12 7 26 14 W 20 0 0,0
13.01.2020 20:00:00 12,7 8,2 12 6 21 11 W 20 0 0,0
13.01.2020 19:00:00 12,8 7,3 12 6 21 11 W 20 0 -
13.01.2020 18:00:00 14,5 7,6 8 5 20 11 WSW 20 0 0,0
13.01.2020 17:00:00 15,7 8,0 10 5 21 11 WSW 20 0 0,0
13.01.2020 16:00:00 15,9 8,2 9 5 19 10 WSW 20 0 0,0
13.01.2020 15:00:00 15,4 9,3 9 5 16 9 WSW 20 0 0,0
13.01.2020 14:00:00 15,0 9,2 6 3 12 6 SW 20 0 0,0
13.01.2020 13:00:00 14,5 9,1 7 4 12 6 SSW 20 0 -
13.01.2020 12:00:00 13,7 11,1 5 3 10 5 S 20 0 0,0
13.01.2020 11:00:00 11,8 10,4 2 1 9 5 N 20 0 0,0
13.01.2020 10:00:00 7,5 6,0 7 4 9 5 N 20 0 0,0
13.01.2020 09:00:00 4,9 3,4 9 5 10 6 N 20 0 0,0
13.01.2020 08:00:00 4,9 3,4 8 4 11 6 N 20 0 0,0
13.01.2020 07:00:00 4,6 3,0 8 5 10 5 N 20 0 -
13.01.2020 06:00:00 5,0 3,3 9 5 12 7 N 20 0 0,0
13.01.2020 05:00:00 5,2 3,5 9 5 11 6 N 20 0 0,0
13.01.2020 04:00:00 5,1 3,3 8 4 10 5 N 20 0 0,0
13.01.2020 03:00:00 5,4 3,6 9 5 10 6 N 19 0 0,0
13.01.2020 02:00:00 5,7 3,7 8 5 11 6 N 20 0 0,0
13.01.2020 01:00:00 6,7 4,7 7 4 10 5 NNE 20 0 -
13.01.2020 00:00:00 7,2 5,0 6 4 11 6 NNE 17 0 0,0
12.01.2020 23:00:00 8,2 5,7 7 4 9 5 N 19 0 0,0
12.01.2020 22:00:00 9,3 6,4 7 4 10 5 NNW 20 0 0,0
12.01.2020 21:00:00 9,7 6,2 6 3 9 5 NW 20 0 0,0
12.01.2020 20:00:00 10,8 6,2 7 4 12 7 WNW 20 0 0,0
12.01.2020 19:00:00 13,1 7,6 10 5 18 10 W 20 0 -
12.01.2020 18:00:00 15,4 8,4 11 6 20 11 W 20 0 0,0
12.01.2020 17:00:00 16,4 9,4 11 6 22 12 WSW 20 0 0,0
12.01.2020 16:00:00 16,4 9,1 12 7 23 12 WSW 20 0 0,0
12.01.2020 15:00:00 15,8 9,2 12 6 22 12 WSW 20 0 0,0
12.01.2020 14:00:00 15,8 9,0 13 7 21 12 WSW 20 0 0,0
12.01.2020 13:00:00 15,3 8,5 9 5 16 8 WSW 20 0 -
12.01.2020 12:00:00 14,5 6,8 7 4 11 6 SW 20 0 0,0
12.01.2020 11:00:00 12,0 8,8 4 2 6 4 N 20 0 0,0
12.01.2020 10:00:00 7,8 5,9 5 3 11 6 N 20 0 0,0
12.01.2020 09:00:00 4,7 2,6 10 5 12 7 N 20 0 0,0
12.01.2020 08:00:00 4,8 2,5 9 5 11 6 N 20 0 0,0
12.01.2020 07:00:00 5,1 2,6 8 5 11 6 N 20 0 -
12.01.2020 06:00:00 5,5 2,9 10 6 13 7 NNW 20 0 0,0
12.01.2020 05:00:00 6,1 3,3 8 5 15 8 NNW 20 0 0,0
12.01.2020 04:00:00 6,1 3,1 11 6 14 8 NNW 20 0 0,0
12.01.2020 03:00:00 6,6 3,1 8 4 11 6 N 20 0 0,0
12.01.2020 02:00:00 7,8 3,7 9 5 14 7 N 20 0 0,0
12.01.2020 01:00:00 11,1 6,3 8 4 23 13 NE 20 0 -
12.01.2020 00:00:00 12,7 7,8 15 8 25 13 E 20 0 0,0
11.01.2020 23:00:00 12,8 7,7 15 8 32 18 E 20 0 0,0

tt = Température de l'air
td = dewpoint
ff = Vitesse du vent
fx = gusts
dd = Direction du vent
vv = visibility
sd = Ensoleillement
rr = Quantités de précipitations

stations d'obs. à proximité